createdAt,value
2022-11-20T00:00:48.473Z,24.50
2022-11-20T00:03:26.082Z,25.40
2022-11-20T00:06:04.776Z,24.10
2022-11-20T00:08:38.723Z,25.00
2022-11-20T00:11:16.138Z,25.00
2022-11-20T00:13:51.800Z,24.00
2022-11-20T00:16:27.423Z,24.20
2022-11-20T00:19:00.929Z,24.90
2022-11-20T00:21:34.515Z,27.90
2022-11-20T00:24:11.205Z,23.60
2022-11-20T00:26:44.754Z,26.50
2022-11-20T00:29:18.725Z,26.60
2022-11-20T00:31:52.193Z,26.80
2022-11-20T00:34:25.441Z,24.50
2022-11-20T00:36:59.112Z,24.40
2022-11-20T00:39:33.070Z,22.20
2022-11-20T00:42:07.103Z,23.90
2022-11-20T00:44:41.128Z,25.80
2022-11-20T00:47:14.783Z,26.00
2022-11-20T00:49:48.642Z,23.50
2022-11-20T00:52:22.470Z,27.00
2022-11-20T00:54:56.254Z,25.60
2022-11-20T00:57:30.044Z,22.50
2022-11-20T01:00:03.652Z,25.30
2022-11-20T01:02:37.389Z,23.90
2022-11-20T01:05:11.516Z,26.10
2022-11-20T01:07:45.157Z,23.50
2022-11-20T01:10:19.185Z,25.90
2022-11-20T01:13:13.365Z,24.70
2022-11-20T01:15:47.074Z,25.70
2022-11-20T01:18:20.552Z,24.10
2022-11-20T01:20:54.629Z,23.60
2022-11-20T01:23:28.076Z,25.60
2022-11-20T01:26:01.649Z,26.00
2022-11-20T01:28:35.787Z,25.70
2022-11-20T01:31:18.135Z,24.50
2022-11-20T01:33:53.976Z,25.40
2022-11-20T01:36:31.291Z,24.00
2022-11-20T01:39:06.994Z,23.00
2022-11-20T01:41:58.772Z,22.90
2022-11-20T01:44:51.158Z,22.40
2022-11-20T01:47:29.815Z,23.90
2022-11-20T01:50:07.143Z,23.80
2022-11-20T01:52:48.594Z,25.10
2022-11-20T01:55:26.599Z,23.10
2022-11-20T01:58:00.608Z,23.60
2022-11-20T02:00:34.118Z,24.70
2022-11-20T02:03:12.403Z,23.30
2022-11-20T02:05:50.604Z,24.20
2022-11-20T02:08:24.520Z,21.90
2022-11-20T02:10:58.241Z,23.60
2022-11-20T02:13:48.754Z,21.10
2022-11-20T02:16:26.650Z,22.50
2022-11-20T02:19:01.986Z,22.80
2022-11-20T02:21:43.661Z,23.50
2022-11-20T02:24:20.063Z,22.70
2022-11-20T02:26:56.840Z,23.10
2022-11-20T02:29:35.116Z,24.30
2022-11-20T02:32:08.599Z,22.90
2022-11-20T02:34:42.474Z,22.00
2022-11-20T02:37:16.489Z,22.40
2022-11-20T02:39:51.668Z,22.00
2022-11-20T02:42:25.556Z,23.20
2022-11-20T02:44:59.314Z,23.80
2022-11-20T02:47:32.384Z,24.90
2022-11-20T02:50:06.406Z,24.10
2022-11-20T02:52:40.225Z,23.10
2022-11-20T02:55:14.184Z,23.10
2022-11-20T02:57:48.385Z,23.90
2022-11-20T03:00:22.610Z,24.90
2022-11-20T03:02:56.224Z,23.00
2022-11-20T03:05:29.541Z,22.10
2022-11-20T03:08:03.036Z,22.10
2022-11-20T03:10:36.459Z,25.30
2022-11-20T03:13:10.061Z,20.90
2022-11-20T03:15:43.789Z,24.50
2022-11-20T03:18:17.153Z,24.40
2022-11-20T03:20:50.604Z,25.50
2022-11-20T03:23:23.907Z,23.20
2022-11-20T03:25:57.570Z,22.30
2022-11-20T03:28:31.268Z,22.00
2022-11-20T03:31:09.822Z,21.10
2022-11-20T03:33:44.865Z,23.30
2022-11-20T03:36:20.151Z,22.00
2022-11-20T03:38:55.499Z,23.40
2022-11-20T03:41:31.116Z,23.40
2022-11-20T03:44:06.479Z,23.00
2022-11-20T03:46:40.459Z,24.00
2022-11-20T03:49:13.898Z,19.50
2022-11-20T03:51:48.545Z,22.70
2022-11-20T03:54:22.182Z,20.00
2022-11-20T03:56:56.060Z,23.20
2022-11-20T03:59:29.351Z,24.20
2022-11-20T04:02:02.868Z,24.10
2022-11-20T04:04:36.479Z,22.60
2022-11-20T04:07:10.274Z,22.80
2022-11-20T04:09:43.558Z,22.70
2022-11-20T04:12:16.763Z,20.30
2022-11-20T04:14:50.711Z,22.20
2022-11-20T04:17:24.159Z,21.20
2022-11-20T04:19:57.422Z,24.30
2022-11-20T04:22:30.936Z,23.40
2022-11-20T04:25:04.979Z,20.10
2022-11-20T04:27:38.650Z,20.90
2022-11-20T04:30:14.293Z,22.30
2022-11-20T04:32:47.712Z,20.60
2022-11-20T04:35:21.383Z,24.20
2022-11-20T04:37:57.255Z,14.20
2022-11-20T04:40:30.999Z,22.00
2022-11-20T04:43:04.532Z,22.70
2022-11-20T04:45:37.866Z,23.90
2022-11-20T04:48:11.267Z,23.60
2022-11-20T04:50:46.032Z,26.90
2022-11-20T04:53:20.382Z,24.60
2022-11-20T04:55:54.429Z,23.90
2022-11-20T04:58:28.223Z,21.60
2022-11-20T05:01:07.696Z,10.40
2022-11-20T05:03:42.672Z,24.50
2022-11-20T05:06:17.812Z,22.90
2022-11-20T05:09:00.619Z,24.50
2022-11-20T05:11:34.640Z,22.60
2022-11-20T05:14:08.139Z,23.40
2022-11-20T05:16:42.311Z,23.90
2022-11-20T05:19:15.980Z,24.00
2022-11-20T05:21:49.748Z,23.80
2022-11-20T05:24:23.375Z,23.00
2022-11-20T05:26:57.141Z,21.40
2022-11-20T05:29:30.703Z,20.60
2022-11-20T05:32:04.451Z,23.80
2022-11-20T05:34:38.095Z,21.00
2022-11-20T05:37:11.252Z,20.20
2022-11-20T05:39:44.703Z,20.50
2022-11-20T05:42:33.899Z,20.70
2022-11-20T05:45:09.521Z,20.50
2022-11-20T05:47:42.887Z,22.30
2022-11-20T05:50:16.821Z,20.90
2022-11-20T05:52:50.509Z,23.00
2022-11-20T05:55:24.289Z,21.60
2022-11-20T05:57:58.692Z,21.30
2022-11-20T06:00:32.180Z,22.20
2022-11-20T06:03:05.841Z,21.90
2022-11-20T06:05:39.547Z,21.00
2022-11-20T06:08:13.186Z,20.80
2022-11-20T06:10:46.712Z,20.60
2022-11-20T06:13:20.182Z,19.70
2022-11-20T06:15:55.339Z,21.70
2022-11-20T06:18:30.936Z,22.40
2022-11-20T06:21:10.238Z,19.20
2022-11-20T06:23:46.197Z,21.20
2022-11-20T06:26:20.988Z,20.90
2022-11-20T06:28:55.511Z,22.30
2022-11-20T06:31:30.063Z,19.60
2022-11-20T06:34:03.582Z,20.20
2022-11-20T06:36:37.794Z,21.20
2022-11-20T06:39:11.031Z,20.20
2022-11-20T06:41:44.869Z,22.80
2022-11-20T06:44:18.605Z,23.10
2022-11-20T06:46:52.393Z,19.70
2022-11-20T06:49:26.690Z,20.70
2022-11-20T06:52:00.121Z,20.10
2022-11-20T06:54:33.391Z,19.30
2022-11-20T06:57:06.931Z,19.70
2022-11-20T06:59:40.658Z,18.80
2022-11-20T07:02:15.395Z,20.50
2022-11-20T07:04:49.237Z,21.10
2022-11-20T07:07:23.096Z,22.40
2022-11-20T07:09:56.812Z,20.00
2022-11-20T07:12:30.013Z,21.30
2022-11-20T07:15:03.746Z,20.90
2022-11-20T07:17:37.135Z,20.40
2022-11-20T07:20:12.465Z,23.60
2022-11-20T07:22:46.141Z,20.50
2022-11-20T07:25:19.878Z,21.80
2022-11-20T07:27:53.501Z,21.80
2022-11-20T07:30:27.579Z,21.80
2022-11-20T07:33:01.694Z,22.00
2022-11-20T07:35:35.718Z,22.40
2022-11-20T07:38:09.439Z,23.50
2022-11-20T07:40:43.132Z,19.70
2022-11-20T07:43:16.697Z,22.80
2022-11-20T07:45:50.316Z,23.50
2022-11-20T07:48:24.105Z,20.80
2022-11-20T07:50:59.409Z,23.50
2022-11-20T07:53:33.429Z,21.60
2022-11-20T07:56:08.124Z,21.30
2022-11-20T07:58:41.440Z,24.30
2022-11-20T08:01:15.200Z,22.40
2022-11-20T08:03:48.600Z,24.30
2022-11-20T08:06:22.173Z,24.70
2022-11-20T08:08:55.726Z,21.70
2022-11-20T08:11:47.521Z,23.50
2022-11-20T08:14:21.090Z,22.30
2022-11-20T08:16:54.733Z,26.50
2022-11-20T08:19:28.048Z,23.50
2022-11-20T08:22:01.747Z,25.30
2022-11-20T08:24:35.426Z,25.00
2022-11-20T08:27:08.820Z,26.60
2022-11-20T08:29:42.465Z,25.60
2022-11-20T08:32:16.470Z,23.00
2022-11-20T08:34:49.852Z,26.10
2022-11-20T08:37:23.676Z,24.80
2022-11-20T08:39:58.399Z,25.50
2022-11-20T08:42:31.664Z,26.10
2022-11-20T08:45:06.024Z,25.20
2022-11-20T08:47:39.299Z,25.60
2022-11-20T08:50:14.885Z,27.00
2022-11-20T08:52:48.292Z,26.70
2022-11-20T08:55:22.427Z,26.00
2022-11-20T08:57:56.390Z,24.90
2022-11-20T09:00:29.797Z,25.60
2022-11-20T09:03:03.459Z,27.90
2022-11-20T09:05:37.087Z,27.80
2022-11-20T09:08:11.088Z,27.30
2022-11-20T09:10:44.527Z,27.50
2022-11-20T09:13:18.436Z,28.00
2022-11-20T09:15:57.634Z,28.50
2022-11-20T09:18:33.117Z,25.50
2022-11-20T09:21:09.055Z,27.40
2022-11-20T09:23:43.092Z,26.80
2022-11-20T09:26:17.184Z,26.10
2022-11-20T09:28:55.338Z,26.50
2022-11-20T09:31:30.707Z,23.90
2022-11-20T09:34:04.321Z,25.20
2022-11-20T09:36:38.000Z,24.80
2022-11-20T09:39:11.886Z,26.30
2022-11-20T09:42:04.453Z,28.20
2022-11-20T09:44:59.047Z,29.10
2022-11-20T09:47:45.095Z,26.30
2022-11-20T09:50:32.300Z,28.40
2022-11-20T09:53:22.781Z,26.30
2022-11-20T09:55:57.577Z,23.00
2022-11-20T09:58:38.726Z,26.80
2022-11-20T10:01:16.765Z,29.30
2022-11-20T10:04:00.183Z,28.60
2022-11-20T10:06:37.210Z,29.90
2022-11-20T10:09:25.056Z,24.80
2022-11-20T10:12:09.343Z,28.90
2022-11-20T10:14:55.281Z,28.10
2022-11-20T10:17:42.311Z,24.30
2022-11-20T10:20:24.378Z,29.60
2022-11-20T10:23:15.028Z,25.20
2022-11-20T10:25:54.422Z,20.30
2022-11-20T10:28:53.964Z,27.70
2022-11-20T10:31:38.608Z,24.60
2022-11-20T10:34:23.032Z,28.00
2022-11-20T10:37:05.066Z,26.80
2022-11-20T10:39:44.440Z,29.00
2022-11-20T10:42:27.833Z,27.90
2022-11-20T10:45:18.868Z,27.20
2022-11-20T10:47:53.029Z,28.90
2022-11-20T10:50:28.231Z,27.90
2022-11-20T10:53:14.856Z,27.40
2022-11-20T10:55:53.605Z,26.80
2022-11-20T10:58:38.915Z,29.60
2022-11-20T11:01:18.830Z,27.70
2022-11-20T11:03:54.329Z,26.70
2022-11-20T11:06:35.579Z,24.80
2022-11-20T11:09:15.695Z,27.40
2022-11-20T11:11:49.172Z,26.90
2022-11-20T11:14:25.850Z,24.60
2022-11-20T11:17:00.612Z,25.10
2022-11-20T11:19:34.219Z,28.30
2022-11-20T11:22:22.894Z,24.80
2022-11-20T11:24:57.499Z,26.00
2022-11-20T11:27:31.222Z,24.70
2022-11-20T11:30:18.617Z,25.90
2022-11-20T11:32:52.552Z,25.40
2022-11-20T11:35:31.433Z,22.80
2022-11-20T11:38:19.261Z,25.90
2022-11-20T11:40:56.162Z,26.40
2022-11-20T11:43:50.826Z,24.10
2022-11-20T11:46:39.040Z,26.10
2022-11-20T11:49:21.948Z,22.00
2022-11-20T11:52:14.555Z,25.00
2022-11-20T11:54:54.007Z,24.10
2022-11-20T11:57:33.072Z,23.20
2022-11-20T12:00:13.125Z,24.80
2022-11-20T12:03:00.727Z,23.50
2022-11-20T12:05:44.380Z,23.40
2022-11-20T12:08:25.794Z,22.70
2022-11-20T12:11:06.327Z,20.20
2022-11-20T12:13:49.913Z,21.00
2022-11-20T12:16:25.536Z,22.30
2022-11-20T12:18:59.244Z,22.10
2022-11-20T12:21:44.841Z,21.80
2022-11-20T12:24:44.259Z,22.70
2022-11-20T12:27:43.054Z,22.10
2022-11-20T12:30:19.101Z,20.30
2022-11-20T12:33:15.147Z,20.60
2022-11-20T12:36:05.455Z,20.40
2022-11-20T12:39:10.304Z,23.90
2022-11-20T12:42:18.663Z,21.90
2022-11-20T12:45:20.811Z,21.10
2022-11-20T12:48:09.037Z,21.80
2022-11-20T12:54:02.701Z,21.60
2022-11-20T12:56:44.540Z,23.50
2022-11-20T12:59:37.154Z,20.90
2022-11-20T13:02:27.235Z,21.60
2022-11-20T13:05:21.581Z,20.70
2022-11-20T13:07:59.350Z,19.30
2022-11-20T13:10:46.613Z,21.40
2022-11-20T13:13:27.412Z,22.70
2022-11-20T13:16:08.716Z,19.60
2022-11-20T13:18:47.226Z,20.30
2022-11-20T13:21:24.047Z,19.70
2022-11-20T13:24:08.811Z,19.40
2022-11-20T13:26:43.069Z,21.40
2022-11-20T13:29:21.704Z,21.20
2022-11-20T13:34:35.828Z,20.60
2022-11-20T13:37:30.909Z,22.50
2022-11-20T13:40:25.530Z,21.70
2022-11-20T13:43:11.069Z,21.00
2022-11-20T13:45:57.741Z,20.60
2022-11-20T13:48:36.108Z,21.10
2022-11-20T13:51:33.648Z,22.70
2022-11-20T13:54:38.269Z,21.80
2022-11-20T13:57:31.047Z,20.50
2022-11-20T14:00:14.453Z,21.90
2022-11-20T14:02:57.180Z,22.80
2022-11-20T14:05:31.105Z,22.70
2022-11-20T14:08:09.594Z,20.90
2022-11-20T14:10:43.857Z,19.90
2022-11-20T14:13:23.114Z,22.40
2022-11-20T14:16:01.519Z,20.90
2022-11-20T14:18:35.995Z,21.80
2022-11-20T14:21:13.745Z,22.80
2022-11-20T14:23:48.456Z,21.60
2022-11-20T14:26:23.561Z,22.80
2022-11-20T14:28:58.556Z,24.20
2022-11-20T14:31:33.927Z,22.80
2022-11-20T14:34:08.773Z,23.70
2022-11-20T14:36:43.362Z,23.70
2022-11-20T14:39:25.960Z,23.80
2022-11-20T14:42:00.596Z,26.30
2022-11-20T14:44:38.831Z,26.10
2022-11-20T14:47:19.388Z,26.30
2022-11-20T14:49:54.326Z,24.90
2022-11-20T14:52:30.291Z,23.80
2022-11-20T14:55:05.354Z,24.70
2022-11-20T14:57:40.602Z,24.90
2022-11-20T15:00:26.137Z,25.00
2022-11-20T15:03:00.536Z,24.30
2022-11-20T15:08:33.080Z,25.40
2022-11-20T15:11:18.888Z,25.90
2022-11-20T15:13:54.145Z,25.40
2022-11-20T15:16:29.779Z,23.70
2022-11-20T15:19:05.173Z,23.60
2022-11-20T15:21:39.226Z,23.00
2022-11-20T15:24:14.676Z,24.00
2022-11-20T15:26:49.591Z,24.80
2022-11-20T15:29:26.418Z,24.50
2022-11-20T15:32:00.588Z,27.20
2022-11-20T15:34:35.216Z,24.40
2022-11-20T15:37:09.343Z,23.00
2022-11-20T15:39:47.495Z,24.10
2022-11-20T15:42:21.781Z,24.30
2022-11-20T15:44:55.576Z,22.50
2022-11-20T15:47:33.019Z,22.80
2022-11-20T15:50:13.017Z,24.00
2022-11-20T15:52:48.210Z,22.60
2022-11-20T15:55:23.219Z,24.50
2022-11-20T15:57:58.144Z,23.70
2022-11-20T16:00:32.860Z,25.50
2022-11-20T16:03:07.993Z,23.70
2022-11-20T16:05:43.514Z,23.80
2022-11-20T16:08:18.708Z,21.00
2022-11-20T16:10:52.848Z,25.10
2022-11-20T16:13:44.691Z,21.40
2022-11-20T16:16:24.730Z,22.80
2022-11-20T16:18:59.645Z,23.40
2022-11-20T16:21:36.246Z,22.60
2022-11-20T16:24:14.785Z,22.20
2022-11-20T16:26:49.132Z,22.10
2022-11-20T16:29:24.231Z,22.40
2022-11-20T16:32:02.578Z,22.90
2022-11-20T16:34:37.687Z,20.10
2022-11-20T16:37:12.478Z,21.50
2022-11-20T16:39:48.092Z,19.30
2022-11-20T16:42:22.917Z,22.30
2022-11-20T16:44:57.644Z,19.50
2022-11-20T16:47:37.013Z,20.00
2022-11-20T16:50:13.256Z,21.50
2022-11-20T16:52:47.803Z,21.80
2022-11-20T16:55:22.339Z,22.00
2022-11-20T16:57:57.690Z,20.70
2022-11-20T17:00:31.693Z,22.70
2022-11-20T17:03:06.689Z,21.30
2022-11-20T17:05:45.053Z,23.70
2022-11-20T17:08:19.376Z,23.20
2022-11-20T17:10:53.815Z,20.10
2022-11-20T17:13:30.068Z,23.70
2022-11-20T17:16:07.300Z,21.50
2022-11-20T17:18:42.335Z,21.40
2022-11-20T17:21:17.855Z,21.50
2022-11-20T17:23:52.299Z,21.00
2022-11-20T17:26:29.094Z,21.70
2022-11-20T17:29:06.693Z,22.30
2022-11-20T17:31:44.900Z,22.30
2022-11-20T17:34:19.925Z,23.10
2022-11-20T17:36:56.458Z,21.70
2022-11-20T17:39:31.091Z,22.70
2022-11-20T17:42:22.884Z,23.00
2022-11-20T17:44:59.778Z,21.40
2022-11-20T17:47:37.341Z,21.60
2022-11-20T17:50:12.735Z,22.00
2022-11-20T17:52:48.547Z,21.10
2022-11-20T17:55:23.595Z,23.30
2022-11-20T17:58:03.870Z,22.70
2022-11-20T18:00:38.170Z,21.70
2022-11-20T18:03:13.015Z,22.60
2022-11-20T18:05:47.989Z,21.80
2022-11-20T18:08:22.537Z,22.20
2022-11-20T18:10:57.142Z,22.30
2022-11-20T18:13:52.341Z,23.10
2022-11-20T18:16:28.028Z,21.10
2022-11-20T18:19:03.989Z,21.40
2022-11-20T18:21:39.153Z,22.60
2022-11-20T18:24:15.360Z,21.80
2022-11-20T18:26:50.831Z,20.40
2022-11-20T18:29:26.226Z,19.60
2022-11-20T18:32:02.637Z,19.70
2022-11-20T18:34:37.822Z,21.50
2022-11-20T18:37:15.640Z,22.00
2022-11-20T18:39:51.351Z,21.50
2022-11-20T18:42:43.825Z,17.90
2022-11-20T18:45:20.472Z,19.80
2022-11-20T18:47:56.952Z,20.50
2022-11-20T18:50:32.265Z,20.20
2022-11-20T18:53:08.623Z,21.10
2022-11-20T18:55:43.266Z,20.70
2022-11-20T18:58:17.545Z,20.60
2022-11-20T19:00:54.545Z,21.20
2022-11-20T19:03:31.000Z,21.30
2022-11-20T19:06:05.994Z,20.80
2022-11-20T19:08:41.937Z,20.60
2022-11-20T19:11:17.369Z,21.70
2022-11-20T19:13:51.771Z,22.90
2022-11-20T19:16:27.405Z,25.20
2022-11-20T19:19:03.775Z,24.00
2022-11-20T19:21:38.969Z,24.30
2022-11-20T19:24:14.042Z,25.30
2022-11-20T19:26:49.086Z,23.70
2022-11-20T19:29:25.103Z,23.50
2022-11-20T19:32:01.085Z,23.20
2022-11-20T19:34:36.140Z,26.10
2022-11-20T19:37:11.873Z,25.00
2022-11-20T19:39:46.570Z,27.10
2022-11-20T19:42:21.601Z,26.20
2022-11-20T19:44:59.131Z,27.70
2022-11-20T19:48:06.160Z,23.80
2022-11-20T19:50:31.395Z,25.20
2022-11-20T19:53:08.818Z,26.00
2022-11-20T19:55:44.830Z,25.30
2022-11-20T19:58:23.627Z,25.60
2022-11-20T20:00:59.031Z,26.70
2022-11-20T20:03:33.578Z,26.60
2022-11-20T20:06:09.460Z,27.70
2022-11-20T20:08:44.633Z,27.30
2022-11-20T20:11:20.867Z,28.20
2022-11-20T20:13:57.959Z,27.90
2022-11-20T20:16:33.378Z,28.30
2022-11-20T20:19:08.993Z,30.10
2022-11-20T20:21:43.771Z,27.70
2022-11-20T20:24:18.959Z,28.50
2022-11-20T20:26:57.961Z,29.60
2022-11-20T20:29:34.278Z,27.10
2022-11-20T20:32:09.449Z,30.20
2022-11-20T20:34:43.481Z,29.70
2022-11-20T20:37:18.711Z,29.20
2022-11-20T20:39:53.606Z,29.20
2022-11-20T20:42:28.993Z,30.70
2022-11-20T20:45:11.637Z,28.40
2022-11-20T20:47:55.821Z,30.00
2022-11-20T20:50:34.954Z,29.90
2022-11-20T20:53:09.509Z,29.10
2022-11-20T20:55:44.269Z,27.90
2022-11-20T20:58:18.376Z,29.80
2022-11-20T21:00:53.107Z,31.30
2022-11-20T21:03:30.673Z,29.90
2022-11-20T21:06:08.748Z,29.80
2022-11-20T21:08:44.655Z,29.40
2022-11-20T21:11:20.911Z,31.40
2022-11-20T21:13:54.546Z,30.20
2022-11-20T21:16:42.157Z,28.90
2022-11-20T21:19:16.942Z,31.80
2022-11-20T21:22:00.845Z,31.30
2022-11-20T21:24:35.778Z,29.20
2022-11-20T21:27:09.819Z,29.30
2022-11-20T21:29:43.887Z,30.00
2022-11-20T21:32:18.026Z,31.80
2022-11-20T21:34:52.351Z,32.60
2022-11-20T21:37:26.518Z,32.10
2022-11-20T21:40:00.075Z,30.50
2022-11-20T21:42:33.702Z,32.60
2022-11-20T21:45:08.387Z,30.40
2022-11-20T21:47:41.855Z,32.20
2022-11-20T21:50:15.543Z,32.50
2022-11-20T21:52:49.336Z,31.90
2022-11-20T21:55:23.423Z,33.80
2022-11-20T21:57:57.016Z,33.90
2022-11-20T22:00:30.297Z,32.30
2022-11-20T22:03:03.994Z,34.00
2022-11-20T22:05:37.672Z,32.10
2022-11-20T22:08:11.361Z,32.00
2022-11-20T22:10:44.562Z,33.30
2022-11-20T22:13:36.299Z,35.20
2022-11-20T22:16:10.399Z,31.60
2022-11-20T22:18:47.498Z,33.40
2022-11-20T22:21:22.454Z,33.70
2022-11-20T22:23:56.764Z,30.70
2022-11-20T22:26:34.930Z,33.70
2022-11-20T22:29:17.219Z,33.10
2022-11-20T22:31:52.844Z,34.40
2022-11-20T22:34:26.434Z,35.30
2022-11-20T22:37:01.037Z,35.50
2022-11-20T22:39:34.492Z,32.60
2022-11-20T22:42:08.210Z,30.00
2022-11-20T22:44:41.790Z,34.90
2022-11-20T22:47:15.102Z,33.60
2022-11-20T22:49:49.075Z,36.20
2022-11-20T22:52:22.415Z,36.40
2022-11-20T22:54:55.713Z,34.00
2022-11-20T22:57:29.210Z,33.40
2022-11-20T23:00:02.616Z,32.70
2022-11-20T23:02:36.266Z,32.60
2022-11-20T23:05:10.775Z,34.40
2022-11-20T23:07:44.896Z,33.20
2022-11-20T23:10:18.654Z,34.10
2022-11-20T23:12:51.866Z,37.30
2022-11-20T23:15:25.549Z,33.90
2022-11-20T23:17:58.913Z,34.20
2022-11-20T23:20:32.885Z,35.20
2022-11-20T23:23:06.478Z,34.40
2022-11-20T23:25:39.881Z,34.80
2022-11-20T23:28:13.636Z,35.00
2022-11-20T23:30:49.593Z,34.10
2022-11-20T23:33:22.851Z,35.00
2022-11-20T23:35:56.472Z,34.00
2022-11-20T23:38:30.252Z,35.40
2022-11-20T23:41:04.204Z,34.60
2022-11-20T23:43:37.769Z,34.40
2022-11-20T23:46:16.464Z,35.30
2022-11-20T23:48:50.645Z,33.00
2022-11-20T23:51:24.532Z,34.50
2022-11-20T23:54:03.272Z,35.30
2022-11-20T23:56:38.518Z,34.90
2022-11-20T23:59:12.364Z,35.50
